sensor_id;sensor_type;location;lat;lon;timestamp;pressure;altitude;pressure_sealevel;temperature;humidity
19843;BME280;10082;51.038;6.992;2023-04-21T00:00:32;-17616.84;;;-144.33;100.00
19843;BME280;10082;51.038;6.992;2023-04-21T00:02:59;-17616.84;;;-144.33;100.00
19843;BME280;10082;51.038;6.992;2023-04-21T00:05:27;-17616.84;;;-144.33;100.00
19843;BME280;10082;51.038;6.992;2023-04-21T00:07:54;-17616.84;;;-144.33;100.00
19843;BME280;10082;51.038;6.992;2023-04-21T00:10:22;-17616.84;;;-144.33;100.00
19843;BME280;10082;51.038;6.992;2023-04-21T00:12:50;-17616.84;;;-144.33;100.00
19843;BME280;10082;51.038;6.992;2023-04-21T00:15:17;-17616.84;;;-144.33;100.00
19843;BME280;10082;51.038;6.992;2023-04-21T00:17:45;-17616.84;;;-144.33;100.00
19843;BME280;10082;51.038;6.992;2023-04-21T00:20:12;-17616.84;;;-144.33;100.00
19843;BME280;10082;51.038;6.992;2023-04-21T00:22:39;-17616.84;;;-144.33;100.00
19843;BME280;10082;51.038;6.992;2023-04-21T00:25:07;-17616.84;;;-144.33;100.00
19843;BME280;10082;51.038;6.992;2023-04-21T00:27:38;-17616.84;;;-144.33;100.00
19843;BME280;10082;51.038;6.992;2023-04-21T00:30:06;-17616.84;;;-144.33;100.00
19843;BME280;10082;51.038;6.992;2023-04-21T00:32:35;-17616.84;;;-144.33;100.00
19843;BME280;10082;51.038;6.992;2023-04-21T00:35:03;-17616.84;;;-144.33;100.00
19843;BME280;10082;51.038;6.992;2023-04-21T00:37:32;-17616.84;;;-144.33;100.00
19843;BME280;10082;51.038;6.992;2023-04-21T00:39:59;-17616.84;;;-144.33;100.00
19843;BME280;10082;51.038;6.992;2023-04-21T00:42:26;-17616.84;;;-144.33;100.00
19843;BME280;10082;51.038;6.992;2023-04-21T00:44:55;-17616.84;;;-144.33;100.00
19843;BME280;10082;51.038;6.992;2023-04-21T00:47:22;-17616.84;;;-144.33;100.00
19843;BME280;10082;51.038;6.992;2023-04-21T00:49:50;-17616.84;;;-144.33;100.00
19843;BME280;10082;51.038;6.992;2023-04-21T00:52:18;-17616.84;;;-144.33;100.00
19843;BME280;10082;51.038;6.992;2023-04-21T00:54:45;-17616.84;;;-144.33;100.00
19843;BME280;10082;51.038;6.992;2023-04-21T00:57:17;-17616.84;;;-144.33;100.00
19843;BME280;10082;51.038;6.992;2023-04-21T00:59:46;-17616.84;;;-144.33;100.00
19843;BME280;10082;51.038;6.992;2023-04-21T01:02:16;-17616.84;;;-144.33;100.00
19843;BME280;10082;51.038;6.992;2023-04-21T01:04:44;-17616.84;;;-144.33;100.00
19843;BME280;10082;51.038;6.992;2023-04-21T01:07:11;-17616.84;;;-144.33;100.00
19843;BME280;10082;51.038;6.992;2023-04-21T01:09:38;-17616.84;;;-144.33;100.00
19843;BME280;10082;51.038;6.992;2023-04-21T01:12:07;-17616.84;;;-144.33;100.00
19843;BME280;10082;51.038;6.992;2023-04-21T01:14:35;-17616.84;;;-144.33;100.00
19843;BME280;10082;51.038;6.992;2023-04-21T01:17:03;-17616.84;;;-144.33;100.00
19843;BME280;10082;51.038;6.992;2023-04-21T01:19:36;-17616.84;;;-144.33;100.00
19843;BME280;10082;51.038;6.992;2023-04-21T01:22:07;-17616.84;;;-144.33;100.00
19843;BME280;10082;51.038;6.992;2023-04-21T01:24:37;-17616.84;;;-144.33;100.00
19843;BME280;10082;51.038;6.992;2023-04-21T01:27:08;-17616.84;;;-144.33;100.00
19843;BME280;10082;51.038;6.992;2023-04-21T01:29:38;-17615.41;;;-144.33;100.00
19843;BME280;10082;51.038;6.992;2023-04-21T01:32:08;-17504.38;;;-144.33;100.00
19843;BME280;10082;51.038;6.992;2023-04-21T01:34:37;-16828.38;;;-144.33;100.00
19843;BME280;10082;51.038;6.992;2023-04-21T01:37:08;-15667.03;;;-144.33;100.00
19843;BME280;10082;51.038;6.992;2023-04-21T01:39:37;-14965.38;;;-144.33;100.00
19843;BME280;10082;51.038;6.992;2023-04-21T01:42:04;-14288.94;;;-144.33;100.00
19843;BME280;10082;51.038;6.992;2023-04-21T01:44:32;-13600.69;;;-144.33;100.00
19843;BME280;10082;51.038;6.992;2023-04-21T01:47:00;-12961.06;;;-144.33;100.00
19843;BME280;10082;51.038;6.992;2023-04-21T01:49:28;-12374.00;;;-144.33;100.00
19843;BME280;10082;51.038;6.992;2023-04-21T01:51:56;-11453.25;;;-144.33;100.00
19843;BME280;10082;51.038;6.992;2023-04-21T01:54:26;-10674.72;;;-144.33;100.00
19843;BME280;10082;51.038;6.992;2023-04-21T01:56:54;-9860.91;;;-144.33;100.00
19843;BME280;10082;51.038;6.992;2023-04-21T01:59:22;-9132.81;;;-144.33;100.00
19843;BME280;10082;51.038;6.992;2023-04-21T02:01:50;-8508.06;;;-144.33;100.00
19843;BME280;10082;51.038;6.992;2023-04-21T02:04:17;-7359.81;;;-144.33;100.00
19843;BME280;10082;51.038;6.992;2023-04-21T02:06:45;-8945.41;;;-144.33;100.00
19843;BME280;10082;51.038;6.992;2023-04-21T02:09:12;-8355.75;;;-144.33;100.00
19843;BME280;10082;51.038;6.992;2023-04-21T02:11:41;-8359.66;;;-144.33;100.00
19843;BME280;10082;51.038;6.992;2023-04-21T02:14:08;-7295.38;;;-144.33;100.00
19843;BME280;10082;51.038;6.992;2023-04-21T02:16:35;-7754.31;;;-144.33;100.00
19843;BME280;10082;51.038;6.992;2023-04-21T02:19:03;-7269.97;;;-144.33;100.00
19843;BME280;10082;51.038;6.992;2023-04-21T02:21:31;-6555.06;;;-144.33;100.00
19843;BME280;10082;51.038;6.992;2023-04-21T02:23:59;-5965.06;;;-144.33;100.00
19843;BME280;10082;51.038;6.992;2023-04-21T02:26:26;-5949.44;;;-144.33;100.00
19843;BME280;10082;51.038;6.992;2023-04-21T02:28:55;-3973.63;;;-144.33;100.00
19843;BME280;10082;51.038;6.992;2023-04-21T02:31:22;-3920.84;;;-144.33;100.00
19843;BME280;10082;51.038;6.992;2023-04-21T02:33:49;-3234.66;;;-144.33;100.00
19843;BME280;10082;51.038;6.992;2023-04-21T02:36:16;-9704.75;;;-144.33;100.00
19843;BME280;10082;51.038;6.992;2023-04-21T02:38:44;-9667.66;;;-144.33;100.00
19843;BME280;10082;51.038;6.992;2023-04-21T02:41:11;-9492.00;;;-144.33;100.00
19843;BME280;10082;51.038;6.992;2023-04-21T02:43:39;-9298.75;;;-144.33;100.00
19843;BME280;10082;51.038;6.992;2023-04-21T02:46:08;-9099.63;;;-144.33;100.00
19843;BME280;10082;51.038;6.992;2023-04-21T02:48:35;-8824.34;;;-144.33;100.00
19843;BME280;10082;51.038;6.992;2023-04-21T02:51:03;-8336.22;;;-144.33;100.00
19843;BME280;10082;51.038;6.992;2023-04-21T02:53:31;-7947.66;;;-144.33;100.00
19843;BME280;10082;51.038;6.992;2023-04-21T02:55:58;-6742.59;;;-144.33;100.00
19843;BME280;10082;51.038;6.992;2023-04-21T02:58:29;-7355.91;;;-144.33;100.00
19843;BME280;10082;51.038;6.992;2023-04-21T03:00:56;-5826.34;;;-144.33;100.00
19843;BME280;10082;51.038;6.992;2023-04-21T03:03:25;-8560.78;;;-144.33;100.00
19843;BME280;10082;51.038;6.992;2023-04-21T03:05:56;-7586.38;;;-144.33;100.00
19843;BME280;10082;51.038;6.992;2023-04-21T03:08:23;-7162.56;;;-144.33;100.00
19843;BME280;10082;51.038;6.992;2023-04-21T03:10:51;-6480.84;;;-144.33;100.00
19843;BME280;10082;51.038;6.992;2023-04-21T03:13:21;-5601.63;;;-144.33;100.00
19843;BME280;10082;51.038;6.992;2023-04-21T03:15:50;-4952.88;;;-144.33;100.00
19843;BME280;10082;51.038;6.992;2023-04-21T03:18:17;-3570.91;;;-144.33;100.00
19843;BME280;10082;51.038;6.992;2023-04-21T03:20:46;-4122.19;;;-144.33;100.00
19843;BME280;10082;51.038;6.992;2023-04-21T03:23:14;-2910.06;;;-144.33;100.00
19843;BME280;10082;51.038;6.992;2023-04-21T03:25:41;-2264.75;;;-144.33;100.00
19843;BME280;10082;51.038;6.992;2023-04-21T03:28:08;-1678.00;;;-144.33;100.00
19843;BME280;10082;51.038;6.992;2023-04-21T03:30:36;121.91;;;-144.33;100.00
19843;BME280;10082;51.038;6.992;2023-04-21T03:33:03;-361.41;;;-144.33;100.00
19843;BME280;10082;51.038;6.992;2023-04-21T03:35:31;425.25;;;-144.33;100.00
19843;BME280;10082;51.038;6.992;2023-04-21T03:38:00;1889.38;;;-144.33;100.00
19843;BME280;10082;51.038;6.992;2023-04-21T03:40:28;2842.94;;;-144.33;100.00
19843;BME280;10082;51.038;6.992;2023-04-21T03:42:59;2878.19;;;-144.33;100.00
19843;BME280;10082;51.038;6.992;2023-04-21T03:45:26;3918.19;;;-144.33;100.00
19843;BME280;10082;51.038;6.992;2023-04-21T03:47:54;5130.88;;;-144.33;100.00
19843;BME280;10082;51.038;6.992;2023-04-21T03:50:21;5767.75;;;-144.33;100.00
19843;BME280;10082;51.038;6.992;2023-04-21T03:52:49;6048.00;;;-144.33;100.00
19843;BME280;10082;51.038;6.992;2023-04-21T03:55:18;6441.97;;;-144.33;100.00
19843;BME280;10082;51.038;6.992;2023-04-21T03:57:46;6939.84;;;-144.33;100.00
19843;BME280;10082;51.038;6.992;2023-04-21T04:00:13;7435.84;;;-144.33;100.00
19843;BME280;10082;51.038;6.992;2023-04-21T04:02:40;8016.22;;;-144.33;100.00
19843;BME280;10082;51.038;6.992;2023-04-21T04:05:09;8798.72;;;-144.33;100.00
19843;BME280;10082;51.038;6.992;2023-04-21T04:07:36;9395.00;;;-144.33;100.00
19843;BME280;10082;51.038;6.992;2023-04-21T04:10:07;9961.94;;;-144.33;100.00
19843;BME280;10082;51.038;6.992;2023-04-21T04:12:38;10627.06;;;-144.33;100.00
19843;BME280;10082;51.038;6.992;2023-04-21T04:15:07;11415.94;;;-144.33;100.00
19843;BME280;10082;51.038;6.992;2023-04-21T04:17:34;12069.56;;;-144.33;100.00
19843;BME280;10082;51.038;6.992;2023-04-21T04:20:02;12856.78;;;-144.33;100.00
19843;BME280;10082;51.038;6.992;2023-04-21T04:22:32;13182.72;;;-144.33;100.00
19843;BME280;10082;51.038;6.992;2023-04-21T04:25:00;13485.09;;;-144.33;100.00
19843;BME280;10082;51.038;6.992;2023-04-21T04:27:28;12929.41;;;-144.33;100.00
19843;BME280;10082;51.038;6.992;2023-04-21T04:29:57;13432.09;;;-144.33;100.00
19843;BME280;10082;51.038;6.992;2023-04-21T04:32:24;14097.81;;;-144.33;100.00
19843;BME280;10082;51.038;6.992;2023-04-21T04:34:52;14681.16;;;-144.33;100.00
19843;BME280;10082;51.038;6.992;2023-04-21T04:37:20;15504.28;;;-144.33;100.00
19843;BME280;10082;51.038;6.992;2023-04-21T04:39:48;15940.44;;;-144.33;100.00
19843;BME280;10082;51.038;6.992;2023-04-21T04:42:15;16655.75;;;-144.33;100.00
19843;BME280;10082;51.038;6.992;2023-04-21T04:44:45;17215.88;;;-144.33;100.00
19843;BME280;10082;51.038;6.992;2023-04-21T04:47:14;18255.78;;;-144.33;100.00
19843;BME280;10082;51.038;6.992;2023-04-21T04:49:47;18713.91;;;-144.33;100.00
19843;BME280;10082;51.038;6.992;2023-04-21T04:52:15;19018.72;;;-144.33;100.00
19843;BME280;10082;51.038;6.992;2023-04-21T04:54:43;19828.97;;;-144.33;100.00
19843;BME280;10082;51.038;6.992;2023-04-21T04:57:11;20179.09;;;-144.33;100.00
19843;BME280;10082;51.038;6.992;2023-04-21T04:59:39;20647.28;;;-144.33;100.00
19843;BME280;10082;51.038;6.992;2023-04-21T05:02:08;21379.19;;;-144.33;100.00
19843;BME280;10082;51.038;6.992;2023-04-21T05:04:43;22026.59;;;-144.33;100.00
19843;BME280;10082;51.038;6.992;2023-04-21T05:07:11;22715.44;;;-144.33;100.00
19843;BME280;10082;51.038;6.992;2023-04-21T05:09:39;22733.16;;;-144.33;100.00
19843;BME280;10082;51.038;6.992;2023-04-21T05:12:10;23268.56;;;-144.33;100.00
19843;BME280;10082;51.038;6.992;2023-04-21T05:14:38;23636.72;;;-144.33;100.00
19843;BME280;10082;51.038;6.992;2023-04-21T05:17:09;23937.97;;;-144.33;100.00
19843;BME280;10082;51.038;6.992;2023-04-21T05:19:37;24316.03;;;-144.33;100.00
19843;BME280;10082;51.038;6.992;2023-04-21T05:22:06;24772.88;;;-144.33;100.00
19843;BME280;10082;51.038;6.992;2023-04-21T05:24:35;25160.88;;;-144.33;100.00
19843;BME280;10082;51.038;6.992;2023-04-21T05:27:02;25596.16;;;-144.33;100.00
19843;BME280;10082;51.038;6.992;2023-04-21T05:29:30;26230.50;;;-144.33;100.00
19843;BME280;10082;51.038;6.992;2023-04-21T05:32:02;26636.34;;;-144.33;100.00
19843;BME280;10082;51.038;6.992;2023-04-21T05:34:34;27249.16;;;-144.33;100.00
19843;BME280;10082;51.038;6.992;2023-04-21T05:37:01;27751.69;;;-144.33;100.00
19843;BME280;10082;51.038;6.992;2023-04-21T05:39:30;28234.59;;;-144.33;100.00
19843;BME280;10082;51.038;6.992;2023-04-21T05:41:57;28546.03;;;-144.33;100.00
19843;BME280;10082;51.038;6.992;2023-04-21T05:44:25;28798.38;;;-144.33;100.00
19843;BME280;10082;51.038;6.992;2023-04-21T05:46:52;29113.81;;;-144.33;100.00
19843;BME280;10082;51.038;6.992;2023-04-21T05:49:19;29510.09;;;-144.33;100.00
19843;BME280;10082;51.038;6.992;2023-04-21T05:51:46;30026.75;;;-144.33;100.00
19843;BME280;10082;51.038;6.992;2023-04-21T05:54:13;30726.88;;;-144.33;100.00
19843;BME280;10082;51.038;6.992;2023-04-21T05:56:42;31152.94;;;-144.33;100.00
19843;BME280;10082;51.038;6.992;2023-04-21T05:59:11;31638.22;;;-144.33;100.00
19843;BME280;10082;51.038;6.992;2023-04-21T06:01:38;31995.31;;;-144.33;100.00
19843;BME280;10082;51.038;6.992;2023-04-21T06:04:05;32439.25;;;-144.33;100.00
19843;BME280;10082;51.038;6.992;2023-04-21T06:06:35;32303.13;;;-144.33;100.00
19843;BME280;10082;51.038;6.992;2023-04-21T06:09:04;32026.88;;;-144.33;100.00
19843;BME280;10082;51.038;6.992;2023-04-21T06:11:33;32500.44;;;-144.33;100.00
19843;BME280;10082;51.038;6.992;2023-04-21T06:14:04;32342.56;;;-144.33;100.00
19843;BME280;10082;51.038;6.992;2023-04-21T06:16:33;32593.19;;;-144.33;100.00
19843;BME280;10082;51.038;6.992;2023-04-21T06:19:00;32413.59;;;-144.33;100.00
19843;BME280;10082;51.038;6.992;2023-04-21T06:21:28;32470.84;;;-144.33;100.00
19843;BME280;10082;51.038;6.992;2023-04-21T06:23:58;32701.72;;;-144.33;100.00
19843;BME280;10082;51.038;6.992;2023-04-21T06:26:29;33279.94;;;-144.33;100.00
19843;BME280;10082;51.038;6.992;2023-04-21T06:28:59;33751.69;;;-144.33;100.00
19843;BME280;10082;51.038;6.992;2023-04-21T06:31:29;34545.25;;;-144.33;100.00
19843;BME280;10082;51.038;6.992;2023-04-21T06:33:57;34059.63;;;-144.33;100.00
19843;BME280;10082;51.038;6.992;2023-04-21T06:36:25;34260.97;;;-144.33;100.00
19843;BME280;10082;51.038;6.992;2023-04-21T06:38:53;34138.59;;;-144.33;100.00
19843;BME280;10082;51.038;6.992;2023-04-21T06:41:20;33674.69;;;-144.33;100.00
19843;BME280;10082;51.038;6.992;2023-04-21T06:43:48;32831.94;;;-144.33;100.00
19843;BME280;10082;51.038;6.992;2023-04-21T06:46:16;31247.63;;;-144.33;100.00
19843;BME280;10082;51.038;6.992;2023-04-21T06:48:47;30829.44;;;-144.33;100.00
19843;BME280;10082;51.038;6.992;2023-04-21T06:51:15;29892.66;;;-144.33;100.00
19843;BME280;10082;51.038;6.992;2023-04-21T06:53:42;30030.69;;;-144.33;100.00
19843;BME280;10082;51.038;6.992;2023-04-21T06:56:09;28660.38;;;-144.33;100.00
19843;BME280;10082;51.038;6.992;2023-04-21T06:58:36;27850.25;;;-144.33;100.00
19843;BME280;10082;51.038;6.992;2023-04-21T07:01:04;27022.53;;;-144.33;100.00
19843;BME280;10082;51.038;6.992;2023-04-21T07:03:31;26468.88;;;-144.33;100.00
19843;BME280;10082;51.038;6.992;2023-04-21T07:06:00;25312.53;;;-144.33;100.00
19843;BME280;10082;51.038;6.992;2023-04-21T07:08:28;24079.72;;;-144.33;100.00
19843;BME280;10082;51.038;6.992;2023-04-21T07:10:58;26317.16;;;-144.33;100.00
19843;BME280;10082;51.038;6.992;2023-04-21T07:13:25;23266.59;;;-144.33;100.00
19843;BME280;10082;51.038;6.992;2023-04-21T07:15:53;22156.47;;;-144.33;100.00
19843;BME280;10082;51.038;6.992;2023-04-21T07:18:20;19854.53;;;-144.33;100.00
19843;BME280;10082;51.038;6.992;2023-04-21T07:20:47;19195.69;;;-144.33;100.00
19843;BME280;10082;51.038;6.992;2023-04-21T07:23:17;17962.88;;;-144.33;100.00
19843;BME280;10082;51.038;6.992;2023-04-21T07:25:47;16734.34;;;-144.33;100.00
19843;BME280;10082;51.038;6.992;2023-04-21T07:28:15;15366.75;;;-144.33;100.00
19843;BME280;10082;51.038;6.992;2023-04-21T07:30:43;14207.78;;;-144.33;100.00
19843;BME280;10082;51.038;6.992;2023-04-21T07:33:10;13473.31;;;-144.33;100.00
19843;BME280;10082;51.038;6.992;2023-04-21T07:35:37;12591.72;;;-144.33;100.00
19843;BME280;10082;51.038;6.992;2023-04-21T07:38:04;11945.91;;;-144.33;100.00
19843;BME280;10082;51.038;6.992;2023-04-21T07:40:33;10595.66;;;-144.33;100.00
19843;BME280;10082;51.038;6.992;2023-04-21T07:43:00;10475.97;;;-144.33;100.00
19843;BME280;10082;51.038;6.992;2023-04-21T07:45:27;7837.78;;;-144.33;100.00
19843;BME280;10082;51.038;6.992;2023-04-21T07:47:54;6430.19;;;-144.33;100.00
19843;BME280;10082;51.038;6.992;2023-04-21T07:50:22;5328.78;;;-144.33;100.00
19843;BME280;10082;51.038;6.992;2023-04-21T07:52:49;4366.78;;;-144.33;100.00
19843;BME280;10082;51.038;6.992;2023-04-21T07:55:16;1721.03;;;-144.33;100.00
19843;BME280;10082;51.038;6.992;2023-04-21T07:57:45;450.69;;;-144.33;100.00
19843;BME280;10082;51.038;6.992;2023-04-21T08:00:14;-631.41;;;-144.33;100.00
19843;BME280;10082;51.038;6.992;2023-04-21T08:02:42;-1734.72;;;-144.33;100.00
19843;BME280;10082;51.038;6.992;2023-04-21T08:05:09;-2389.91;;;-144.33;100.00
19843;BME280;10082;51.038;6.992;2023-04-21T08:07:36;-2595.25;;;-144.33;100.00
19843;BME280;10082;51.038;6.992;2023-04-21T08:10:04;-427.94;;;-144.33;100.00
19843;BME280;10082;51.038;6.992;2023-04-21T08:12:32;1233.59;;;-144.33;100.00
19843;BME280;10082;51.038;6.992;2023-04-21T08:15:00;1172.91;;;-144.33;100.00
19843;BME280;10082;51.038;6.992;2023-04-21T08:17:30;-1355.25;;;-144.33;100.00
19843;BME280;10082;51.038;6.992;2023-04-21T08:19:57;-5009.53;;;-144.33;100.00
19843;BME280;10082;51.038;6.992;2023-04-21T08:22:25;-6631.25;;;-144.33;100.00
19843;BME280;10082;51.038;6.992;2023-04-21T08:24:54;-8062.88;;;-144.33;100.00
19843;BME280;10082;51.038;6.992;2023-04-21T08:27:21;-10358.59;;;-144.33;100.00
19843;BME280;10082;51.038;6.992;2023-04-21T08:29:49;-11821.97;;;-144.33;100.00
19843;BME280;10082;51.038;6.992;2023-04-21T08:32:18;-14097.88;;;-144.33;100.00
19843;BME280;10082;51.038;6.992;2023-04-21T08:34:49;-17299.81;;;-144.33;100.00
19843;BME280;10082;51.038;6.992;2023-04-21T08:37:16;-16481.56;;;-144.33;100.00
19843;BME280;10082;51.038;6.992;2023-04-21T08:39:44;-17616.84;;;-144.33;100.00
19843;BME280;10082;51.038;6.992;2023-04-21T08:42:12;-17616.84;;;-144.33;100.00
19843;BME280;10082;51.038;6.992;2023-04-21T08:44:39;-17616.84;;;-144.33;100.00
19843;BME280;10082;51.038;6.992;2023-04-21T08:47:09;-17616.84;;;-144.33;100.00
19843;BME280;10082;51.038;6.992;2023-04-21T08:49:39;-17615.41;;;-144.33;100.00
19843;BME280;10082;51.038;6.992;2023-04-21T08:52:07;-15620.25;;;-144.33;100.00
19843;BME280;10082;51.038;6.992;2023-04-21T08:54:35;-13624.09;;;-144.33;100.00
19843;BME280;10082;51.038;6.992;2023-04-21T08:57:02;-11876.59;;;-144.33;100.00
19843;BME280;10082;51.038;6.992;2023-04-21T08:59:30;-11626.88;;;-144.33;100.00
19843;BME280;10082;51.038;6.992;2023-04-21T09:02:10;-11127.41;;;-144.33;100.00
19843;BME280;10082;51.038;6.992;2023-04-21T09:04:40;6167.56;;;-144.33;100.00
19843;BME280;10082;51.038;6.992;2023-04-21T09:07:08;30590.78;;;-144.33;100.00
19843;BME280;10082;51.038;6.992;2023-04-21T09:09:56;45715.88;;;-144.33;100.00
19843;BME280;10082;51.038;6.992;2023-04-21T09:12:25;53042.38;;;-144.33;100.00
19843;BME280;10082;51.038;6.992;2023-04-21T09:14:52;46377.22;;;-144.33;100.00
19843;BME280;10082;51.038;6.992;2023-04-21T09:17:21;38902.97;;;-144.33;100.00
19843;BME280;10082;51.038;6.992;2023-04-21T09:19:55;33011.53;;;-144.33;100.00
19843;BME280;10082;51.038;6.992;2023-04-21T09:22:25;38035.38;;;-144.33;100.00
19843;BME280;10082;51.038;6.992;2023-04-21T09:24:57;42590.84;;;-144.33;100.00
19843;BME280;10082;51.038;6.992;2023-04-21T09:27:26;43728.53;;;-144.33;100.00
19843;BME280;10082;51.038;6.992;2023-04-21T09:29:54;54788.31;;;-144.33;100.00
19843;BME280;10082;51.038;6.992;2023-04-21T09:32:21;71313.44;;;-144.33;100.00
19843;BME280;10082;51.038;6.992;2023-04-21T09:34:49;71777.75;;;-144.33;100.00
19843;BME280;10082;51.038;6.992;2023-04-21T09:37:18;73310.63;;;-144.33;100.00
19843;BME280;10082;51.038;6.992;2023-04-21T09:39:49;78058.47;;;-144.33;100.00
19843;BME280;10082;51.038;6.992;2023-04-21T09:42:17;79841.34;;;-144.33;100.00
19843;BME280;10082;51.038;6.992;2023-04-21T09:44:46;88643.59;;;-144.33;100.00
19843;BME280;10082;51.038;6.992;2023-04-21T09:47:14;91508.53;;;-144.33;100.00
19843;BME280;10082;51.038;6.992;2023-04-21T09:49:43;105725.03;;;-144.33;100.00
19843;BME280;10082;51.038;6.992;2023-04-21T09:52:10;112171.53;;;-144.33;100.00
19843;BME280;10082;51.038;6.992;2023-04-21T09:54:48;112171.53;;;-144.33;100.00
19843;BME280;10082;51.038;6.992;2023-04-21T09:57:20;112171.53;;;-144.33;100.00
19843;BME280;10082;51.038;6.992;2023-04-21T09:59:53;112171.53;;;-144.33;100.00
19843;BME280;10082;51.038;6.992;2023-04-21T10:02:24;112171.53;;;-144.33;100.00
19843;BME280;10082;51.038;6.992;2023-04-21T10:04:52;112171.53;;;-144.33;100.00
19843;BME280;10082;51.038;6.992;2023-04-21T10:07:20;112171.53;;;-144.33;100.00
19843;BME280;10082;51.038;6.992;2023-04-21T10:09:51;112171.53;;;-144.33;100.00
19843;BME280;10082;51.038;6.992;2023-04-21T10:12:25;112171.53;;;-144.33;100.00
19843;BME280;10082;51.038;6.992;2023-04-21T10:14:54;112171.53;;;-144.33;100.00
19843;BME280;10082;51.038;6.992;2023-04-21T10:17:22;112171.53;;;-144.33;100.00
19843;BME280;10082;51.038;6.992;2023-04-21T10:19:51;112171.53;;;-144.33;100.00
19843;BME280;10082;51.038;6.992;2023-04-21T10:22:27;112171.53;;;-144.33;100.00
19843;BME280;10082;51.038;6.992;2023-04-21T10:24:57;112171.53;;;-144.33;100.00
19843;BME280;10082;51.038;6.992;2023-04-21T10:27:32;112171.53;;;-144.33;100.00
19843;BME280;10082;51.038;6.992;2023-04-21T10:30:01;112171.53;;;-144.33;100.00
19843;BME280;10082;51.038;6.992;2023-04-21T10:32:43;112171.53;;;-144.33;100.00
19843;BME280;10082;51.038;6.992;2023-04-21T10:35:12;112171.53;;;-144.33;100.00
19843;BME280;10082;51.038;6.992;2023-04-21T10:37:40;112171.53;;;-144.33;100.00
19843;BME280;10082;51.038;6.992;2023-04-21T10:43:41;112171.53;;;-144.33;100.00
19843;BME280;10082;51.038;6.992;2023-04-21T10:46:32;112171.53;;;-144.33;100.00
19843;BME280;10082;51.038;6.992;2023-04-21T10:49:07;112171.53;;;-144.33;100.00
19843;BME280;10082;51.038;6.992;2023-04-21T10:54:42;112171.53;;;-144.33;100.00
19843;BME280;10082;51.038;6.992;2023-04-21T10:57:12;112171.53;;;-144.33;100.00
19843;BME280;10082;51.038;6.992;2023-04-21T10:59:42;112171.53;;;-144.33;100.00
19843;BME280;10082;51.038;6.992;2023-04-21T11:02:11;112171.53;;;-144.33;100.00
19843;BME280;10082;51.038;6.992;2023-04-21T11:04:39;112171.53;;;-144.33;100.00
19843;BME280;10082;51.038;6.992;2023-04-21T11:07:11;112171.53;;;-144.33;95.41
19843;BME280;10082;51.038;6.992;2023-04-21T11:09:40;112171.53;;;-144.33;90.88
19843;BME280;10082;51.038;6.992;2023-04-21T11:12:09;112171.53;;;-144.33;90.06
19843;BME280;10082;51.038;6.992;2023-04-21T11:14:40;112171.53;;;-144.33;91.61
19843;BME280;10082;51.038;6.992;2023-04-21T11:17:12;112171.53;;;-144.33;91.36
19843;BME280;10082;51.038;6.992;2023-04-21T11:19:39;112171.53;;;-144.33;85.95
19843;BME280;10082;51.038;6.992;2023-04-21T11:22:07;112171.53;;;-144.33;85.07
19843;BME280;10082;51.038;6.992;2023-04-21T11:24:34;112171.53;;;-144.33;83.44
19843;BME280;10082;51.038;6.992;2023-04-21T11:27:01;112171.53;;;-144.33;84.65
19843;BME280;10082;51.038;6.992;2023-04-21T11:29:28;112171.53;;;-144.33;83.67
19843;BME280;10082;51.038;6.992;2023-04-21T11:31:56;112171.53;;;-144.33;83.62
19843;BME280;10082;51.038;6.992;2023-04-21T11:34:25;112171.53;;;-144.33;80.07
19843;BME280;10082;51.038;6.992;2023-04-21T11:36:52;112171.53;;;-144.33;76.30
19843;BME280;10082;51.038;6.992;2023-04-21T11:39:20;112171.53;;;-144.33;74.83
19843;BME280;10082;51.038;6.992;2023-04-21T11:41:49;112171.53;;;-144.33;71.03
19843;BME280;10082;51.038;6.992;2023-04-21T11:44:31;112171.53;;;-144.33;71.44
19843;BME280;10082;51.038;6.992;2023-04-21T11:47:11;112171.53;;;-144.33;72.05
19843;BME280;10082;51.038;6.992;2023-04-21T11:49:45;112171.53;;;-144.33;76.90
19843;BME280;10082;51.038;6.992;2023-04-21T11:52:21;112171.53;;;-144.33;80.55
19843;BME280;10082;51.038;6.992;2023-04-21T11:54:56;112171.53;;;-144.33;79.73
19843;BME280;10082;51.038;6.992;2023-04-21T11:57:26;112171.53;;;-144.33;74.34
19843;BME280;10082;51.038;6.992;2023-04-21T11:59:57;112171.53;;;-144.33;73.51
19843;BME280;10082;51.038;6.992;2023-04-21T12:02:29;112171.53;;;-144.33;67.85
19843;BME280;10082;51.038;6.992;2023-04-21T12:05:04;112171.53;;;-144.33;65.02
19843;BME280;10082;51.038;6.992;2023-04-21T12:07:32;112171.53;;;-144.33;62.89
19843;BME280;10082;51.038;6.992;2023-04-21T12:10:07;112171.53;;;-144.33;63.10
19843;BME280;10082;51.038;6.992;2023-04-21T12:12:39;112171.53;;;-144.33;62.94
19843;BME280;10082;51.038;6.992;2023-04-21T12:15:08;112171.53;;;-144.33;62.52
19843;BME280;10082;51.038;6.992;2023-04-21T12:17:36;112171.53;;;-144.33;62.17
19843;BME280;10082;51.038;6.992;2023-04-21T12:20:14;112171.53;;;-144.33;63.81
19843;BME280;10082;51.038;6.992;2023-04-21T12:22:41;112171.53;;;-144.33;69.02
19843;BME280;10082;51.038;6.992;2023-04-21T12:25:09;112171.53;;;-144.33;67.80
19843;BME280;10082;51.038;6.992;2023-04-21T12:27:37;112171.53;;;-144.33;63.44
19843;BME280;10082;51.038;6.992;2023-04-21T12:30:06;112171.53;;;-144.33;62.94
19843;BME280;10082;51.038;6.992;2023-04-21T12:32:33;112171.53;;;-144.33;60.74
19843;BME280;10082;51.038;6.992;2023-04-21T12:35:01;112171.53;;;-144.33;61.27
19843;BME280;10082;51.038;6.992;2023-04-21T12:37:31;112171.53;;;-144.33;58.10
19843;BME280;10082;51.038;6.992;2023-04-21T12:39:58;112171.53;;;-144.33;58.01
19843;BME280;10082;51.038;6.992;2023-04-21T12:42:25;112171.53;;;-144.33;57.15